Time;durP1;ratioP1;P1;durP2;ratioP2;P2;SDS_P1;SDS_P2;PMS_P1;PMS_P2;Temp;Humidity;BMP_temperature;BMP_pressure;BME280_temperature;BME280_humidity;BME280_pressure;Samples;Min_cycle;Max_cycle;Signal;HPM_P1;HPM_P2
2023/12/15 00:01:14;;;;;;;104.80;46.58;;;;;;;6.94;82.10;101740.69;4946179;28;20349;-80
2023/12/15 00:03:42;;;;;;;86.78;42.30;;;;;;;6.62;82.17;101716.03;4944895;28;20457;-80
2023/12/15 00:06:14;;;;;;;96.90;45.47;;;;;;;6.83;82.03;101756.25;4934735;28;20556;-80
2023/12/15 00:08:47;;;;;;;;;;;;;;;6.67;81.69;101760.66;4936571;28;20510;-79
2023/12/15 00:11:16;;;;;;;76.82;42.95;;;;;;;6.47;82.63;101746.75;4951623;28;20057;-80
2023/12/15 00:13:43;;;;;;;86.32;44.20;;;;;;;6.51;82.63;101758.84;4960590;28;20074;-81
2023/12/15 00:16:11;;;;;;;85.15;43.53;;;;;;;6.53;82.75;101766.66;4958359;28;20081;-80
2023/12/15 00:18:38;;;;;;;85.15;43.88;;;;;;;6.44;82.54;101754.81;4963353;28;20050;-82
2023/12/15 00:21:05;;;;;;;83.43;42.00;;;;;;;6.15;81.91;101736.09;4975889;28;20062;-80
2023/12/15 00:23:34;;;;;;;86.03;42.28;;;;;;;6.12;82.57;101746.81;4938489;28;20042;-81
2023/12/15 00:26:03;;;;;;;75.97;41.22;;;;;;;6.18;82.95;101764.09;4947036;28;20305;-81
2023/12/15 00:28:30;;;;;;;81.57;40.28;;;;;;;6.13;82.59;101772.25;4942396;28;20058;-81
2023/12/15 00:31:00;;;;;;;84.35;42.00;;;;;;;5.83;82.46;101729.00;4951675;28;20073;-81
2023/12/15 00:33:27;;;;;;;85.22;41.55;;;;;;;6.12;83.07;101794.28;4945276;28;20077;-80
2023/12/15 00:36:07;;;;;;;91.78;45.80;;;;;;;6.04;82.56;101785.03;4954240;28;20318;-81
2023/12/15 00:38:34;;;;;;;72.00;39.75;;;;;;;6.05;82.36;101803.44;4962707;28;20140;-81
2023/12/15 00:41:01;;;;;;;88.78;44.30;;;;;;;5.98;82.42;101802.88;4944104;28;20434;-79
2023/12/15 00:43:28;;;;;;;78.05;42.08;;;;;;;5.98;82.53;101809.94;4946697;28;20132;-80
2023/12/15 00:45:55;;;;;;;80.88;41.97;;;;;;;5.89;82.40;101797.19;4956551;28;20049;-82
2023/12/15 00:48:22;;;;;;;82.78;43.22;;;;;;;5.96;82.41;101806.53;4969407;28;20054;-80
2023/12/15 00:50:49;;;;;;;77.57;43.35;;;;;;;5.93;81.89;101804.03;4974271;28;20060;-80
2023/12/15 00:53:16;;;;;;;79.20;42.58;;;;;;;5.91;81.53;101806.72;4977106;28;20136;-80
2023/12/15 00:55:46;;;;;;;75.72;41.65;;;;;;;5.98;81.44;101823.13;4950695;28;20069;-81
2023/12/15 00:58:14;;;;;;;80.88;39.95;;;;;;;5.74;81.35;101793.53;4957932;28;20050;-80
2023/12/15 01:00:49;;;;;;;88.60;43.75;;;;;;;5.82;81.34;101830.03;4950867;28;20043;-81
2023/12/15 01:03:16;;;;;;;77.32;41.45;;;;;;;5.68;81.60;101826.31;4926101;28;20459;-81
2023/12/15 01:05:43;;;;;;;79.03;40.63;;;;;;;5.76;82.04;101844.38;4922458;28;20058;-80
2023/12/15 01:08:11;;;;;;;78.63;41.60;;;;;;;5.72;81.66;101842.81;4925673;29;20055;-80
2023/12/15 01:10:38;;;;;;;68.60;39.50;;;;;;;5.75;82.09;101840.91;4930573;29;20451;-80
2023/12/15 01:13:05;;;;;;;71.85;40.40;;;;;;;5.66;81.88;101828.19;4925522;29;20117;-79
2023/12/15 01:15:32;;;;;;;75.45;41.35;;;;;;;5.67;81.65;101845.69;4933776;28;20504;-81
2023/12/15 01:17:59;;;;;;;75.00;40.88;;;;;;;5.68;81.55;101862.31;4929373;29;20056;-80
2023/12/15 01:20:27;;;;;;;75.70;41.63;;;;;;;5.53;81.68;101853.38;4907178;29;20505;-79
2023/12/15 01:22:57;;;;;;;77.50;42.55;;;;;;;5.48;81.69;101855.38;4913765;28;20465;-79
2023/12/15 01:25:25;;;;;;;71.10;40.30;;;;;;;5.46;82.71;101863.38;4949661;28;20245;-80
2023/12/15 01:27:52;;;;;;;72.03;39.00;;;;;;;4.94;82.17;101776.31;4938865;28;20065;-79
2023/12/15 01:30:24;;;;;;;69.55;39.53;;;;;;;5.45;82.13;101850.28;4946441;28;20042;-81
2023/12/15 01:32:52;;;;;;;70.95;41.30;;;;;;;5.51;81.97;101850.84;4945831;28;20562;-80
2023/12/15 01:35:19;;;;;;;69.85;37.60;;;;;;;5.60;82.27;101872.41;4931327;28;20418;-79
2023/12/15 01:37:46;;;;;;;70.95;40.53;;;;;;;5.69;81.75;101871.97;4921697;28;20427;-80
2023/12/15 01:40:13;;;;;;;74.65;41.60;;;;;;;5.62;80.90;101868.75;4926833;29;20489;-80
2023/12/15 01:42:40;;;;;;;70.88;41.17;;;;;;;5.51;80.74;101878.94;4924325;29;20449;-79
2023/12/15 01:45:07;;;;;;;71.07;39.33;;;;;;;5.24;80.83;101839.84;4936788;28;20074;-80
2023/12/15 01:47:37;;;;;;;73.47;42.35;;;;;;;5.00;81.41;101817.25;4899761;29;20059;-80
2023/12/15 01:50:08;;;;;;;66.85;39.05;;;;;;;5.32;81.26;101877.19;4906846;29;20518;-78
2023/12/15 01:52:36;;;;;;;67.18;39.40;;;;;;;5.20;81.06;101869.00;4905942;28;20480;-79
2023/12/15 01:55:03;;;;;;;69.65;38.85;;;;;;;5.20;81.41;101877.75;4941719;28;20424;-79
2023/12/15 01:57:31;;;;;;;73.55;42.67;;;;;;;4.93;81.65;101846.50;4940725;28;20047;-79
2023/12/15 02:00:06;;;;;;;66.07;39.05;;;;;;;5.13;82.26;101876.34;4949209;28;20140;-79
2023/12/15 02:02:34;;;;;;;71.40;40.42;;;;;;;5.11;82.61;101883.44;4932305;28;20062;-81
2023/12/15 02:05:02;;;;;;;71.53;39.80;;;;;;;5.19;82.79;101886.56;4923090;28;20118;-80
2023/12/15 02:07:29;;;;;;;65.63;38.55;;;;;;;5.25;82.66;101891.56;4938344;29;20144;-79
2023/12/15 02:09:58;;;;;;;71.88;40.03;;;;;;;5.34;82.04;101885.88;4934366;29;20055;-79
2023/12/15 02:12:27;;;;;;;71.78;37.75;;;;;;;5.30;82.05;101899.25;4928004;28;20592;-80
2023/12/15 02:14:54;;;;;;;65.38;40.55;;;;;;;5.21;81.79;101889.13;4924152;29;20047;-81
2023/12/15 02:17:21;;;;;;;73.93;40.63;;;;;;;5.13;81.73;101882.44;4921970;29;20229;-79
2023/12/15 02:19:47;;;;;;;68.28;40.42;;;;;;;5.20;81.67;101904.09;4900384;29;20075;-82
2023/12/15 02:22:14;;;;;;;65.70;40.85;;;;;;;5.21;82.58;101913.69;4914516;29;20443;-79
2023/12/15 02:24:41;;;;;;;63.50;37.83;;;;;;;5.11;82.39;101899.22;4925859;29;20150;-81
2023/12/15 02:27:08;;;;;;;76.03;41.88;;;;;;;5.09;82.35;101895.81;4927844;29;20047;-81
2023/12/15 02:29:35;;;;;;;71.90;40.13;;;;;;;5.27;81.98;101915.19;4940230;28;20051;-80
2023/12/15 02:32:03;;;;;;;74.97;39.90;;;;;;;5.27;81.63;101921.31;4944392;28;20087;-81
2023/12/15 02:34:32;;;;;;;71.63;40.45;;;;;;;5.16;81.24;101907.78;4928307;29;20051;-81
2023/12/15 02:36:59;;;;;;;66.40;38.35;;;;;;;4.91;81.58;101877.28;4934122;28;20055;-80
2023/12/15 02:39:26;;;;;;;69.57;40.80;;;;;;;5.12;81.52;101911.47;4940739;28;20518;-77
2023/12/15 02:41:53;;;;;;;67.13;39.80;;;;;;;4.70;81.06;101859.84;4928953;28;20062;-81
2023/12/15 02:44:22;;;;;;;61.88;37.58;;;;;;;4.78;81.43;101859.50;4926617;28;20043;-80
2023/12/15 02:46:49;;;;;;;63.17;39.67;;;;;;;5.09;81.16;101901.06;4924066;28;20142;-79
2023/12/15 02:49:18;;;;;;;68.82;40.35;;;;;;;4.98;81.04;101895.47;4897426;29;20496;-79
2023/12/15 02:51:52;;;;;;;58.55;36.88;;;;;;;4.99;81.14;101895.38;4897961;29;20372;-79
2023/12/15 02:54:23;;;;;;;54.80;36.00;;;;;;;4.93;80.85;101907.03;4919177;29;20082;-81
2023/12/15 02:56:54;;;;;;;55.50;35.42;;;;;;;4.76;81.09;101898.16;4925710;29;20079;-78
2023/12/15 02:59:21;;;;;;;66.90;37.95;;;;;;;4.87;81.49;101923.09;4924107;28;20047;-78
2023/12/15 03:01:50;;;;;;;61.05;36.72;;;;;;;4.83;81.52;101921.53;4951875;28;20074;-81
2023/12/15 03:04:17;;;;;;;58.58;36.72;;;;;;;4.75;81.10;101906.97;4935402;28;20407;-80
2023/12/15 03:06:44;;;;;;;57.17;36.40;;;;;;;4.86;81.55;101905.59;4947314;28;20573;-79
2023/12/15 03:09:15;;;;;;;56.40;37.85;;;;;;;4.56;81.19;101847.28;4920527;28;20061;-80
2023/12/15 03:11:43;;;;;;;54.65;36.75;;;;;;;4.79;81.21;101893.63;4944409;28;20104;-79
2023/12/15 03:14:10;;;;;;;63.65;35.88;;;;;;;5.06;81.29;101928.41;4946280;28;20361;-80
2023/12/15 03:16:42;;;;;;;51.53;33.67;;;;;;;4.66;81.13;101856.50;4957358;28;20054;-81
2023/12/15 03:19:14;;;;;;;59.15;37.42;;;;;;;5.04;80.15;101922.34;4960961;28;20364;-80
2023/12/15 03:21:41;;;;;;;62.63;36.50;;;;;;;4.96;80.10;101907.81;4949038;28;20104;-80
2023/12/15 03:24:08;;;;;;;58.55;36.55;;;;;;;5.03;80.37;101933.81;4950943;28;20049;-79
2023/12/15 03:26:35;;;;;;;61.55;36.70;;;;;;;4.64;80.13;101849.59;4954030;28;20490;-81
2023/12/15 03:29:02;;;;;;;58.00;36.33;;;;;;;5.19;80.01;101928.69;4947298;28;20065;-78
2023/12/15 03:31:29;;;;;;;62.90;37.90;;;;;;;5.19;79.43;101933.09;4945776;28;20064;-80
2023/12/15 03:33:58;;;;;;;62.65;37.75;;;;;;;5.04;79.62;101930.22;4944027;28;20062;-80
2023/12/15 03:36:24;;;;;;;60.85;36.40;;;;;;;4.80;79.30;101883.97;4947162;28;20046;-80
2023/12/15 03:38:51;;;;;;;54.47;35.90;;;;;;;5.03;80.29;101938.22;4933659;28;20058;-81
2023/12/15 03:41:18;;;;;;;58.17;37.58;;;;;;;4.71;80.56;101901.88;4951878;28;20050;-79
2023/12/15 03:43:45;;;;;;;65.50;36.22;;;;;;;4.87;80.54;101943.28;4959966;28;20597;-82
2023/12/15 03:46:19;;;;;;;67.05;37.08;;;;;;;4.73;80.53;101925.47;4948190;28;20149;-81
2023/12/15 03:48:49;;;;;;;61.97;36.95;;;;;;;4.78;80.73;101936.66;4948545;28;20517;-81
2023/12/15 03:51:21;;;;;;;56.78;35.40;;;;;;;4.71;80.36;101929.97;4936903;28;20046;-81
2023/12/15 03:53:52;;;;;;;59.85;35.83;;;;;;;4.79;80.93;101946.25;4970021;28;20420;-81
2023/12/15 03:56:26;;;;;;;58.58;37.33;;;;;;;4.67;80.46;101949.41;4939983;28;20050;-77
2023/12/15 03:58:53;;;;;;;58.22;36.10;;;;;;;4.66;80.53;101939.78;4940741;28;20053;-81
2023/12/15 04:01:20;;;;;;;61.97;35.38;;;;;;;4.66;80.22;101945.94;4945146;28;20050;-81
2023/12/15 04:03:53;;;;;;;54.25;34.90;;;;;;;4.67;79.93;101954.69;4944455;28;20058;-80
2023/12/15 04:06:21;;;;;;;55.78;32.83;;;;;;;4.56;80.91;101954.25;4949850;28;20486;-80
2023/12/15 04:08:48;;;;;;;60.38;36.72;;;;;;;4.43;80.06;101923.22;4915358;28;20050;-79
2023/12/15 04:11:18;;;;;;;60.60;35.38;;;;;;;3.89;80.40;101848.38;4947036;28;20057;-81
2023/12/15 04:13:45;;;;;;;61.95;35.38;;;;;;;4.58;80.66;101934.88;4936974;28;20042;-79
2023/12/15 04:16:12;;;;;;;58.78;36.00;;;;;;;4.69;80.59;101945.78;4944309;28;20081;-81
2023/12/15 04:18:43;;;;;;;60.65;35.75;;;;;;;4.82;80.09;101972.44;4939560;28;20187;-81
2023/12/15 04:21:13;;;;;;;58.70;35.65;;;;;;;4.81;79.81;101968.09;4915899;28;20161;-80
2023/12/15 04:23:40;;;;;;;57.90;35.90;;;;;;;4.70;79.58;101962.44;4954964;28;20433;-80
2023/12/15 04:26:07;;;;;;;54.78;35.72;;;;;;;4.52;79.90;101963.22;4944908;28;20058;-81
2023/12/15 04:28:34;;;;;;;57.63;34.63;;;;;;;4.69;79.40;102000.19;4959568;28;20405;-80
2023/12/15 04:31:11;;;;;;;57.42;34.42;;;;;;;4.62;79.71;102002.22;4936751;28;20133;-81
2023/12/15 04:33:41;;;;;;;55.10;32.67;;;;;;;4.52;80.31;101997.41;4914943;28;20557;-81
2023/12/15 04:36:09;;;;;;;56.60;34.38;;;;;;;4.50;80.32;102003.56;4932242;28;20069;-81
2023/12/15 04:38:39;;;;;;;58.47;34.90;;;;;;;4.42;80.42;101982.00;4943108;28;20046;-81
2023/12/15 04:41:06;;;;;;;61.70;35.10;;;;;;;4.32;81.25;101961.38;4933185;28;20050;-80
2023/12/15 04:43:37;;;;;;;63.17;34.15;;;;;;;4.47;81.42;101987.94;4922213;28;20047;-80
2023/12/15 04:46:03;;;;;;;54.20;31.73;;;;;;;4.05;82.39;101902.03;4961105;28;20254;-81
2023/12/15 04:48:32;;;;;;;58.90;35.47;;;;;;;4.80;82.22;102018.13;4941118;28;20161;-81
2023/12/15 04:51:03;;;;;;;60.53;34.63;;;;;;;4.59;81.07;101986.56;4942709;28;20503;-81
2023/12/15 04:53:30;;;;;;;70.55;32.97;;;;;;;5.02;80.41;102032.09;4949971;28;20131;-81
2023/12/15 04:55:56;;;;;;;70.28;36.22;;;;;;;4.88;80.01;102021.31;4959862;28;20824;-79
2023/12/15 04:58:24;;;;;;;74.80;35.70;;;;;;;4.94;79.78;102023.69;4960441;28;20057;-81
2023/12/15 05:00:51;;;;;;;63.80;35.92;;;;;;;4.78;79.58;102020.84;4949676;28;20144;-82
2023/12/15 05:03:18;;;;;;;62.35;35.97;;;;;;;4.67;80.51;102015.19;4933621;28;20059;-79
2023/12/15 05:05:47;;;;;;;66.05;34.20;;;;;;;4.49;81.14;102011.50;4917114;29;20346;-80
2023/12/15 05:08:14;;;;;;;60.13;34.25;;;;;;;4.64;81.03;102046.88;4908652;29;20523;-80
2023/12/15 05:10:41;;;;;;;63.95;34.72;;;;;;;4.67;81.61;102057.28;4895919;29;20141;-79
2023/12/15 05:13:13;;;;;;;77.18;35.13;;;;;;;4.71;81.52;102061.50;4901872;28;20467;-81
2023/12/15 05:15:40;;;;;;;57.10;33.20;;;;;;;4.81;81.03;102065.44;4911093;28;20047;-80
2023/12/15 05:18:07;;;;;;;56.60;31.38;;;;;;;4.69;81.66;102043.13;4932039;28;20078;-82
2023/12/15 05:20:38;;;;;;;61.42;31.92;;;;;;;4.86;81.02;102068.75;4901851;29;20077;-80
2023/12/15 05:23:06;;;;;;;54.83;28.45;;;;;;;5.00;81.63;102070.81;4926658;28;20058;-80
2023/12/15 05:25:33;;;;;;;57.00;27.50;;;;;;;5.13;80.94;102076.41;4921967;28;20274;-79
2023/12/15 05:27:59;;;;;;;57.50;26.85;;;;;;;5.14;81.50;102073.69;4911695;28;20178;-81
2023/12/15 05:30:27;;;;;;;53.75;27.38;;;;;;;5.12;81.28;102072.03;4909142;29;20098;-81
2023/12/15 05:32:54;;;;;;;56.67;28.15;;;;;;;4.72;81.20;102013.22;4920698;28;20137;-80
2023/12/15 05:35:21;;;;;;;53.33;26.65;;;;;;;4.97;81.63;102063.03;4900052;29;20359;-79
2023/12/15 05:37:52;;;;;;;50.00;25.92;;;;;;;4.33;82.47;101968.38;4878560;29;20547;-81
2023/12/15 05:40:21;;;;;;;59.42;27.52;;;;;;;5.00;82.41;102075.19;4895815;29;20534;-81
2023/12/15 05:42:48;;;;;;;51.38;25.30;;;;;;;5.11;81.84;102094.03;4880239;29;20062;-77
2023/12/15 05:45:19;;;;;;;50.10;25.88;;;;;;;5.02;82.01;102068.94;4924661;29;20783;-78
2023/12/15 05:47:48;;;;;;;47.88;24.63;;;;;;;5.18;81.35;102082.31;4889388;29;20055;-81
2023/12/15 05:50:16;;;;;;;53.38;23.65;;;;;;;5.00;81.61;102060.28;4886834;29;20597;-80
2023/12/15 05:52:45;;;;;;;47.58;24.77;;;;;;;4.86;81.16;102047.69;4922674;28;20065;-80
2023/12/15 05:55:12;;;;;;;49.45;24.58;;;;;;;5.16;81.53;102115.75;4912254;29;20095;-81
2023/12/15 05:57:39;;;;;;;52.25;26.58;;;;;;;4.85;81.86;102080.16;4897634;29;20075;-81
2023/12/15 06:00:06;;;;;;;55.58;25.75;;;;;;;5.08;82.52;102115.22;4918400;29;20601;-80
2023/12/15 06:02:34;;;;;;;53.53;25.48;;;;;;;5.03;82.38;102107.53;4924099;28;20093;-80
2023/12/15 06:05:01;;;;;;;65.78;30.15;;;;;;;4.97;82.47;102097.22;4952895;28;20286;-79
2023/12/15 06:07:31;;;;;;;46.40;23.23;;;;;;;4.81;82.66;102069.88;4919296;28;20396;-80
2023/12/15 06:09:58;;;;;;;59.15;25.75;;;;;;;5.11;82.39;102117.72;4924251;28;20046;-80
2023/12/15 06:12:27;;;;;;;55.10;26.25;;;;;;;5.15;82.70;102116.69;4933775;28;20254;-80
2023/12/15 06:14:54;;;;;;;57.88;37.35;;;;;;;5.16;82.53;102121.03;4935731;28;20157;-83
2023/12/15 06:17:21;;;;;;;57.67;28.60;;;;;;;5.16;82.47;102118.38;4929419;28;20054;-80
2023/12/15 06:19:48;;;;;;;57.17;24.38;;;;;;;5.20;82.22;102125.25;4934908;28;20253;-81
2023/12/15 06:22:15;;;;;;;49.15;22.73;;;;;;;5.21;82.59;102129.56;4929054;28;20054;-81
2023/12/15 06:24:46;;;;;;;58.25;24.80;;;;;;;4.42;82.70;101996.94;4939235;28;20050;-80
2023/12/15 06:27:13;;;;;;;55.22;25.52;;;;;;;5.15;82.32;102111.41;4947618;28;20359;-81
2023/12/15 06:29:41;;;;;;;55.55;25.50;;;;;;;5.13;82.25;102118.53;4950294;28;20078;-82
2023/12/15 06:32:12;;;;;;;54.20;25.08;;;;;;;5.14;81.96;102125.50;4913240;28;20050;-81
2023/12/15 06:34:42;;;;;;;61.42;26.50;;;;;;;5.19;82.58;102147.22;4917920;28;20050;-81
2023/12/15 06:37:09;;;;;;;58.83;27.15;;;;;;;5.10;82.36;102137.09;4918710;28;20050;-80
2023/12/15 06:39:39;;;;;;;57.63;24.48;;;;;;;5.27;82.87;102162.72;4925858;28;20331;-81
2023/12/15 06:42:07;;;;;;;56.88;26.58;;;;;;;5.09;81.97;102138.00;4938874;28;20588;-81
2023/12/15 06:44:33;;;;;;;63.67;28.63;;;;;;;5.21;82.54;102158.53;4933788;28;20310;-82
2023/12/15 06:47:13;;;;;;;50.78;27.92;;;;;;;4.72;81.92;102081.59;4945329;28;20057;-80
2023/12/15 06:49:40;;;;;;;58.92;24.55;;;;;;;4.83;82.75;102110.97;4938644;28;20390;-80
2023/12/15 06:52:10;;;;;;;56.42;26.15;;;;;;;5.20;82.86;102162.09;4945502;28;20155;-80
2023/12/15 06:54:41;;;;;;;52.47;26.80;;;;;;;4.91;82.68;102114.16;4933940;28;20101;-81
2023/12/15 06:57:14;;;;;;;50.90;26.95;;;;;;;5.37;82.35;102168.47;4942042;28;20413;-82
2023/12/15 06:59:41;;;;;;;57.10;25.92;;;;;;;5.48;82.25;102179.38;4923406;28;20050;-81
2023/12/15 07:02:11;;;;;;;63.42;26.17;;;;;;;5.26;82.13;102132.03;4945880;28;20065;-80
2023/12/15 07:04:44;;;;;;;67.72;28.67;;;;;;;5.63;81.64;102178.75;4956140;28;20413;-80
2023/12/15 07:07:19;;;;;;;64.60;26.20;;;;;;;5.57;81.27;102179.84;4945343;28;20112;-78
2023/12/15 07:09:45;;;;;;;64.20;28.70;;;;;;;5.24;81.82;102132.09;4946565;28;20252;-79
2023/12/15 07:12:12;;;;;;;64.25;30.23;;;;;;;5.44;82.05;102180.44;4922941;28;20050;-82
2023/12/15 07:14:39;;;;;;;82.80;30.35;;;;;;;5.48;82.13;102184.66;4939071;28;20380;-82
2023/12/15 07:17:06;;;;;;;66.32;27.95;;;;;;;5.52;82.51;102194.13;4940963;28;20081;-80
2023/12/15 07:19:33;;;;;;;75.03;34.03;;;;;;;5.27;82.62;102153.03;4945918;28;20497;-80
2023/12/15 07:22:00;;;;;;;71.78;32.83;;;;;;;5.37;81.83;102160.56;4974375;28;20057;-80
2023/12/15 07:24:26;;;;;;;73.70;32.03;;;;;;;5.45;81.38;102171.59;4937024;28;20074;-81
2023/12/15 07:26:54;;;;;;;81.82;32.70;;;;;;;5.21;82.04;102140.09;4921170;28;20085;-81
2023/12/15 07:29:22;;;;;;;72.07;30.55;;;;;;;5.56;82.31;102206.28;4942947;28;20560;-82
2023/12/15 07:31:49;;;;;;;69.45;31.20;;;;;;;5.52;82.50;102200.25;4940811;28;20093;-83
2023/12/15 07:34:17;;;;;;;87.15;31.70;;;;;;;5.57;82.78;102219.34;4968540;28;20125;-84
2023/12/15 07:36:44;;;;;;;64.80;31.35;;;;;;;5.56;82.77;102217.66;4937739;28;20458;-81
2023/12/15 07:39:11;;;;;;;62.03;30.85;;;;;;;5.46;82.79;102186.47;4953170;28;20050;-82
2023/12/15 07:41:41;;;;;;;83.32;36.20;;;;;;;5.56;83.23;102207.13;4926373;28;20459;-81
2023/12/15 07:44:08;;;;;;;77.95;36.83;;;;;;;5.64;83.06;102214.69;4934131;28;20050;-83
2023/12/15 07:46:35;;;;;;;80.50;34.55;;;;;;;5.66;83.30;102209.38;4957101;28;20561;-82
2023/12/15 07:49:02;;;;;;;75.43;33.92;;;;;;;5.75;83.01;102217.75;4957817;28;20198;-83
2023/12/15 07:51:29;;;;;;;57.17;32.63;;;;;;;5.76;83.28;102235.25;4958450;28;20407;-82
2023/12/15 07:53:56;;;;;;;65.13;32.15;;;;;;;5.46;83.59;102179.47;4918787;28;20486;-82
2023/12/15 07:56:26;;;;;;;66.90;29.95;;;;;;;5.77;83.44;102221.13;4938969;28;20054;-81
2023/12/15 07:58:54;;;;;;;63.72;28.75;;;;;;;5.92;82.84;102245.13;4907694;28;20141;-81
2023/12/15 08:01:24;;;;;;;62.55;31.30;;;;;;;5.94;82.51;102240.69;4939225;28;20050;-81
2023/12/15 08:03:51;;;;;;;63.22;28.63;;;;;;;5.40;81.82;102144.63;4945268;28;20065;-82
2023/12/15 08:06:22;;;;;;;62.00;30.98;;;;;;;5.96;81.85;102241.47;4933679;28;20054;-81
2023/12/15 08:08:51;;;;;;;58.80;32.25;;;;;;;5.90;81.30;102231.19;4956915;28;20053;-81
2023/12/15 08:11:19;;;;;;;62.05;32.38;;;;;;;6.03;80.86;102261.38;4947759;28;20536;-81
2023/12/15 08:13:46;;;;;;;68.55;32.20;;;;;;;5.76;80.17;102210.69;4945067;28;20351;-81
2023/12/15 08:16:13;;;;;;;57.83;30.77;;;;;;;5.89;80.24;102240.00;4931034;28;20054;-80
2023/12/15 08:18:42;;;;;;;68.95;30.98;;;;;;;5.97;80.46;102237.91;4962381;28;20137;-80
2023/12/15 08:21:10;;;;;;;62.90;31.15;;;;;;;6.01;80.36;102246.56;4926701;28;20818;-82
2023/12/15 08:23:39;;;;;;;63.08;30.20;;;;;;;6.15;80.24;102273.19;4936656;28;20094;-80
2023/12/15 08:26:07;;;;;;;68.32;34.80;;;;;;;6.01;80.17;102243.91;4943250;28;20046;-82
2023/12/15 08:28:38;;;;;;;56.22;31.88;;;;;;;6.11;79.88;102267.16;4951701;28;20079;-83
2023/12/15 08:31:05;;;;;;;70.00;34.25;;;;;;;5.85;80.03;102226.09;4946559;28;20415;-79
2023/12/15 08:33:32;;;;;;;61.72;33.78;;;;;;;6.29;79.99;102285.78;4953821;28;20111;-81
2023/12/15 08:36:00;;;;;;;57.05;31.52;;;;;;;6.28;79.96;102294.59;4942749;28;20065;-81
2023/12/15 08:38:26;;;;;;;63.85;33.78;;;;;;;6.27;79.61;102284.97;4929535;28;20109;-81
2023/12/15 08:40:54;;;;;;;56.60;31.83;;;;;;;6.20;79.50;102282.59;4957319;28;20058;-82
2023/12/15 08:43:21;;;;;;;66.90;32.95;;;;;;;6.30;79.34;102296.22;4934891;28;20129;-80
2023/12/15 08:45:48;;;;;;;66.65;32.72;;;;;;;6.13;79.63;102270.59;4939880;28;20222;-80
2023/12/15 08:48:19;;;;;;;69.78;35.15;;;;;;;6.33;79.52;102313.69;4925611;28;20137;-81
2023/12/15 08:50:48;;;;;;;57.38;32.72;;;;;;;6.39;79.63;102318.72;4948355;28;20045;-80
2023/12/15 08:53:16;;;;;;;59.03;33.25;;;;;;;5.61;79.77;102191.13;4956879;28;20399;-81
2023/12/15 08:55:46;;;;;;;57.28;32.05;;;;;;;6.47;80.11;102345.63;4964199;28;20408;-81
2023/12/15 08:58:17;;;;;;;54.60;31.23;;;;;;;6.47;79.94;102339.50;4977681;28;20595;-78
2023/12/15 09:00:46;;;;;;;49.10;29.23;;;;;;;6.48;79.67;102349.97;4948310;28;20057;-81
2023/12/15 09:03:14;;;;;;;54.33;29.65;;;;;;;6.32;79.83;102312.84;4968335;28;20758;-81
2023/12/15 09:05:43;;;;;;;60.42;29.38;;;;;;;6.57;78.95;102346.06;4956725;28;20533;-79
2023/12/15 09:08:31;;;;;;;60.08;29.70;;;;;;;6.68;78.63;102356.16;4951578;28;20053;-81
2023/12/15 09:11:20;;;;;;;50.72;27.73;;;;;;;6.38;78.61;102295.88;4952229;28;20488;-82
2023/12/15 09:13:52;;;;;;;53.88;30.35;;;;;;;6.80;78.63;102379.38;4909538;28;20125;-82
2023/12/15 09:16:20;;;;;;;49.05;27.75;;;;;;;6.90;78.03;102375.38;4946923;28;20053;-82
2023/12/15 09:18:53;;;;;;;44.85;26.80;;;;;;;6.94;77.63;102379.63;4911348;28;20055;-83
2023/12/15 09:21:26;;;;;;;43.75;23.60;;;;;;;6.96;76.76;102361.88;4928230;28;20073;-81
2023/12/15 09:23:56;;;;;;;52.72;26.85;;;;;;;7.11;76.73;102392.00;4936152;28;20433;-81
2023/12/15 09:26:27;;;;;;;51.10;26.97;;;;;;;5.96;76.96;102199.28;4939518;28;20038;-82
2023/12/15 09:28:58;;;;;;;49.35;27.05;;;;;;;7.14;76.91;102391.91;4945629;28;20769;-81
2023/12/15 09:31:26;;;;;;;55.10;25.27;;;;;;;6.72;76.74;102294.38;4952768;28;20053;-82
2023/12/15 09:33:57;;;;;;;46.72;25.90;;;;;;;7.47;76.38;102394.72;4973350;28;20144;-82
2023/12/15 09:36:31;;;;;;;43.85;23.33;;;;;;;7.66;75.79;102397.34;4941337;28;20379;-83
2023/12/15 09:39:01;;;;;;;39.72;22.08;;;;;;;7.59;74.81;102361.59;4955764;28;20526;-82
2023/12/15 09:41:29;;;;;;;42.05;22.30;;;;;;;7.77;75.01;102388.94;4942928;28;20468;-81
2023/12/15 09:43:56;;;;;;;36.50;19.52;;;;;;;7.71;75.40;102381.28;4947350;28;20355;-81
2023/12/15 09:46:24;;;;;;;37.38;20.58;;;;;;;7.98;74.49;102420.53;4947083;28;20108;-80
2023/12/15 09:48:52;;;;;;;40.95;19.77;;;;;;;7.85;73.99;102399.13;4938339;28;20491;-81
2023/12/15 09:51:25;;;;;;;42.92;20.55;;;;;;;8.00;74.27;102414.22;4939676;28;20451;-81
2023/12/15 09:53:53;;;;;;;39.88;20.15;;;;;;;8.17;73.92;102425.78;4943345;28;20049;-81
2023/12/15 09:56:20;;;;;;;43.80;21.20;;;;;;;8.32;73.29;102435.59;4972022;28;20060;-81
2023/12/15 09:58:50;;;;;;;38.75;20.98;;;;;;;8.25;72.74;102416.53;4943251;28;20050;-81
2023/12/15 10:01:19;;;;;;;41.28;21.48;;;;;;;8.21;72.85;102412.31;4962522;28;20488;-80
2023/12/15 10:03:46;;;;;;;42.40;21.75;;;;;;;8.15;73.00;102402.03;4957344;28;20493;-80
2023/12/15 10:06:13;;;;;;;43.72;24.05;;;;;;;8.37;73.02;102425.63;4959961;28;20500;-80
2023/12/15 10:08:43;;;;;;;50.05;26.98;;;;;;;8.52;71.71;102426.69;4948727;28;20075;-81
2023/12/15 10:11:29;;;;;;;56.05;29.30;;;;;;;8.06;72.32;102357.56;4944073;28;20048;-79
2023/12/15 10:14:04;;;;;;;50.45;28.20;;;;;;;8.46;72.14;102435.78;4924974;28;20305;-78
2023/12/15 10:16:40;;;;;;;58.65;30.50;;;;;;;8.18;72.77;102396.59;4961284;28;20104;-80
2023/12/15 10:19:08;;;;;;;55.90;31.33;;;;;;;8.45;72.66;102438.53;4918124;28;20585;-80
2023/12/15 10:21:36;;;;;;;58.53;31.48;;;;;;;8.52;72.45;102437.28;4949267;28;20173;-82
2023/12/15 10:24:23;;;;;;;61.47;32.50;;;;;;;8.31;72.67;102397.69;4949681;28;20640;-77
2023/12/15 10:26:50;;;;;;;53.55;30.73;;;;;;;8.24;72.65;102391.00;4954416;28;20054;-80
2023/12/15 10:29:21;;;;;;;53.55;30.92;;;;;;;8.13;72.77;102350.97;4932601;28;20074;-81
2023/12/15 10:31:50;;;;;;;53.58;32.03;;;;;;;8.64;72.55;102434.00;4955649;28;20050;-81
2023/12/15 10:34:21;;;;;;;59.55;31.80;;;;;;;8.62;72.59;102406.75;4970568;28;20043;-79
2023/12/15 10:36:48;;;;;;;51.75;30.67;;;;;;;8.58;72.83;102405.19;4970619;28;20057;-80
2023/12/15 10:39:18;;;;;;;51.75;30.08;;;;;;;8.64;73.35;102423.41;4979106;28;20052;-79
2023/12/15 10:41:47;;;;;;;56.92;32.13;;;;;;;8.81;73.00;102437.53;4949575;28;20108;-80
2023/12/15 10:44:14;;;;;;;50.72;29.88;;;;;;;8.72;73.31;102423.84;4961075;28;20061;-81
2023/12/15 10:46:44;;;;;;;53.45;28.95;;;;;;;8.99;71.51;102431.28;4931040;28;20145;-80
2023/12/15 10:49:12;;;;;;;46.60;29.77;;;;;;;8.94;71.84;102433.31;4931079;28;20172;-80
2023/12/15 10:51:41;;;;;;;45.03;27.73;;;;;;;8.58;71.94;102362.81;4942989;28;20050;-79
2023/12/15 10:54:11;;;;;;;46.85;28.08;;;;;;;8.87;71.68;102410.75;4919681;28;20109;-81
2023/12/15 10:56:39;;;;;;;51.13;29.10;;;;;;;9.10;71.28;102426.28;4935422;28;20065;-78
2023/12/15 10:59:07;;;;;;;56.20;29.08;;;;;;;9.12;71.86;102442.94;4946170;28;20510;-80
2023/12/15 11:01:38;;;;;;;46.97;27.23;;;;;;;9.16;71.97;102439.19;4932776;28;20050;-81
2023/12/15 11:04:23;;;;;;;45.70;28.90;;;;;;;8.91;71.65;102401.72;4965830;28;20080;-82
2023/12/15 11:06:52;;;;;;;43.25;27.08;;;;;;;9.03;71.97;102411.66;4940015;28;20042;-82
2023/12/15 11:09:32;;;;;;;45.60;27.00;;;;;;;9.15;71.81;102432.19;4937205;28;20102;-80
2023/12/15 11:12:38;;;;;;;43.83;24.17;;;;;;;9.28;71.31;102426.22;4943750;28;20125;-82
2023/12/15 11:15:13;;;;;;;39.83;24.15;;;;;;;9.19;71.16;102407.22;4944996;28;20139;-81
2023/12/15 11:17:43;;;;;;;40.95;24.20;;;;;;;9.19;70.57;102407.22;4927047;28;20141;-83
2023/12/15 11:20:24;;;;;;;39.75;25.27;;;;;;;9.30;71.35;102443.75;4927779;28;20457;-84
2023/12/15 11:22:57;;;;;;;40.10;23.90;;;;;;;9.07;70.69;102381.38;4943321;28;20062;-82
2023/12/15 11:25:52;;;;;;;42.13;25.85;;;;;;;9.35;71.16;102424.94;4946333;28;20050;-82